sensor_id;sensor_type;location;lat;lon;timestamp;pressure;altitude;pressure_sealevel;temperature;humidity
78509;BME280;67802;50.846;7.958;2023-07-16T00:00:50;97392.69;;;22.44;48.08
78509;BME280;67802;50.846;7.958;2023-07-16T00:03:15;97381.28;;;22.44;47.93
78509;BME280;67802;50.846;7.958;2023-07-16T00:05:40;97385.72;;;22.43;48.12
78509;BME280;67802;50.846;7.958;2023-07-16T00:08:06;97397.16;;;22.44;48.16
78509;BME280;67802;50.846;7.958;2023-07-16T00:10:35;97397.16;;;22.44;47.99
78509;BME280;67802;50.846;7.958;2023-07-16T00:13:01;97394.50;;;22.44;48.09
78509;BME280;67802;50.846;7.958;2023-07-16T00:15:26;97395.44;;;22.43;48.22
78509;BME280;67802;50.846;7.958;2023-07-16T00:17:51;97400.75;;;22.43;48.01
78509;BME280;67802;50.846;7.958;2023-07-16T00:20:17;97415.81;;;22.42;48.23
78509;BME280;67802;50.846;7.958;2023-07-16T00:22:43;97421.09;;;22.42;47.97
78509;BME280;67802;50.846;7.958;2023-07-16T00:25:08;97424.72;;;22.41;48.10
78509;BME280;67802;50.846;7.958;2023-07-16T00:27:33;97425.53;;;22.42;48.10
78509;BME280;67802;50.846;7.958;2023-07-16T00:29:59;97427.50;;;22.39;48.24
78509;BME280;67802;50.846;7.958;2023-07-16T00:32:24;97426.53;;;22.41;47.94
78509;BME280;67802;50.846;7.958;2023-07-16T00:34:50;97430.16;;;22.39;48.43
78509;BME280;67802;50.846;7.958;2023-07-16T00:37:15;97427.50;;;22.39;48.29
78509;BME280;67802;50.846;7.958;2023-07-16T00:39:40;97420.56;;;22.38;47.95
78509;BME280;67802;50.846;7.958;2023-07-16T00:42:06;97425.84;;;22.38;48.19
78509;BME280;67802;50.846;7.958;2023-07-16T00:44:31;97430.31;;;22.38;48.09
78509;BME280;67802;50.846;7.958;2023-07-16T00:46:57;97431.31;;;22.37;48.26
78509;BME280;67802;50.846;7.958;2023-07-16T00:49:23;97434.78;;;22.37;48.13
78509;BME280;67802;50.846;7.958;2023-07-16T00:51:50;97434.78;;;22.37;48.26
78509;BME280;67802;50.846;7.958;2023-07-16T00:54:17;97444.53;;;22.37;48.08
78509;BME280;67802;50.846;7.958;2023-07-16T00:56:42;97438.41;;;22.36;48.06
78509;BME280;67802;50.846;7.958;2023-07-16T00:59:08;97441.03;;;22.36;48.11
78509;BME280;67802;50.846;7.958;2023-07-16T01:01:34;97441.03;;;22.36;48.13
78509;BME280;67802;50.846;7.958;2023-07-16T01:03:59;97442.03;;;22.35;47.96
78509;BME280;67802;50.846;7.958;2023-07-16T01:06:36;97430.63;;;22.35;48.23
78509;BME280;67802;50.846;7.958;2023-07-16T01:09:08;97429.78;;;22.34;48.08
78509;BME280;67802;50.846;7.958;2023-07-16T01:11:36;97436.06;;;22.33;48.11
78509;BME280;67802;50.846;7.958;2023-07-16T01:14:03;97442.19;;;22.34;48.11
78509;BME280;67802;50.846;7.958;2023-07-16T01:16:28;97438.69;;;22.33;47.94
78509;BME280;67802;50.846;7.958;2023-07-16T01:18:54;97442.31;;;22.32;48.24
78509;BME280;67802;50.846;7.958;2023-07-16T01:21:21;97449.44;;;22.32;48.04
78509;BME280;67802;50.846;7.958;2023-07-16T01:24:03;97454.75;;;22.32;48.12
78509;BME280;67802;50.846;7.958;2023-07-16T01:29:34;97451.25;;;22.31;48.37
78509;BME280;67802;50.846;7.958;2023-07-16T01:32:00;97449.59;;;22.30;48.01
78509;BME280;67802;50.846;7.958;2023-07-16T01:34:30;97444.28;;;22.30;48.15
78509;BME280;67802;50.846;7.958;2023-07-16T01:36:55;97449.59;;;22.30;48.24
78509;BME280;67802;50.846;7.958;2023-07-16T01:39:21;97454.06;;;22.30;48.24
78509;BME280;67802;50.846;7.958;2023-07-16T01:41:47;97447.09;;;22.29;48.11
78509;BME280;67802;50.846;7.958;2023-07-16T01:44:12;97447.91;;;22.29;48.31
78509;BME280;67802;50.846;7.958;2023-07-16T01:46:38;97446.25;;;22.28;47.96
78509;BME280;67802;50.846;7.958;2023-07-16T01:49:03;97451.53;;;22.28;47.91
78509;BME280;67802;50.846;7.958;2023-07-16T01:51:29;97458.66;;;22.28;48.09
78509;BME280;67802;50.846;7.958;2023-07-16T01:53:54;97458.66;;;22.28;48.03
78509;BME280;67802;50.846;7.958;2023-07-16T01:56:19;97459.66;;;22.27;48.40
78509;BME280;67802;50.846;7.958;2023-07-16T01:58:45;97460.63;;;22.26;48.04
78509;BME280;67802;50.846;7.958;2023-07-16T02:01:10;97465.09;;;22.25;48.07
78509;BME280;67802;50.846;7.958;2023-07-16T02:03:35;97469.38;;;22.26;48.31
78509;BME280;67802;50.846;7.958;2023-07-16T02:06:01;97467.75;;;22.25;48.30
78509;BME280;67802;50.846;7.958;2023-07-16T02:08:26;97468.72;;;22.24;48.35
78509;BME280;67802;50.846;7.958;2023-07-16T02:10:52;97471.38;;;22.24;48.27
78509;BME280;67802;50.846;7.958;2023-07-16T02:13:17;97466.09;;;22.24;48.01
78509;BME280;67802;50.846;7.958;2023-07-16T02:15:43;97464.41;;;22.23;48.44
78509;BME280;67802;50.846;7.958;2023-07-16T02:18:08;97472.34;;;22.23;48.07
78509;BME280;67802;50.846;7.958;2023-07-16T02:20:34;97475.97;;;22.22;48.28
78509;BME280;67802;50.846;7.958;2023-07-16T02:22:59;97480.28;;;22.23;48.23
78509;BME280;67802;50.846;7.958;2023-07-16T02:25:24;97481.28;;;22.22;48.29
78509;BME280;67802;50.846;7.958;2023-07-16T02:27:50;97480.41;;;22.21;48.22
78509;BME280;67802;50.846;7.958;2023-07-16T02:30:16;97483.91;;;22.22;48.44
78509;BME280;67802;50.846;7.958;2023-07-16T02:32:41;97487.53;;;22.21;48.05
78509;BME280;67802;50.846;7.958;2023-07-16T02:35:07;97485.88;;;22.20;48.34
78509;BME280;67802;50.846;7.958;2023-07-16T02:37:32;97487.53;;;22.21;48.32
78509;BME280;67802;50.846;7.958;2023-07-16T02:39:58;97492.16;;;22.19;48.44
78509;BME280;67802;50.846;7.958;2023-07-16T02:42:24;97494.78;;;22.19;48.32
78509;BME280;67802;50.846;7.958;2023-07-16T02:44:49;97494.78;;;22.19;48.26
78509;BME280;67802;50.846;7.958;2023-07-16T02:47:14;97509.00;;;22.18;48.11
78509;BME280;67802;50.846;7.958;2023-07-16T02:49:40;97509.00;;;22.18;48.35
78509;BME280;67802;50.846;7.958;2023-07-16T02:52:06;97517.91;;;22.17;48.16
78509;BME280;67802;50.846;7.958;2023-07-16T02:54:31;97523.22;;;22.17;48.13
78509;BME280;67802;50.846;7.958;2023-07-16T02:56:57;97527.66;;;22.16;48.12
78509;BME280;67802;50.846;7.958;2023-07-16T02:59:23;97524.19;;;22.16;48.31
78509;BME280;67802;50.846;7.958;2023-07-16T03:01:48;97527.66;;;22.16;48.40
78509;BME280;67802;50.846;7.958;2023-07-16T03:04:13;97526.97;;;22.14;48.04
78509;BME280;67802;50.846;7.958;2023-07-16T03:06:39;97532.13;;;22.16;48.10
78509;BME280;67802;50.846;7.958;2023-07-16T03:09:04;97540.19;;;22.14;48.33
78509;BME280;67802;50.846;7.958;2023-07-16T03:11:29;97534.91;;;22.14;48.36
78509;BME280;67802;50.846;7.958;2023-07-16T03:13:55;97547.31;;;22.14;48.11
78509;BME280;67802;50.846;7.958;2023-07-16T03:16:20;97544.66;;;22.14;48.12
78509;BME280;67802;50.846;7.958;2023-07-16T03:18:45;97545.63;;;22.13;48.00
78509;BME280;67802;50.846;7.958;2023-07-16T03:21:11;97553.56;;;22.13;48.31
78509;BME280;67802;50.846;7.958;2023-07-16T03:23:37;97554.56;;;22.12;48.32
78509;BME280;67802;50.846;7.958;2023-07-16T03:26:02;97551.06;;;22.11;48.14
78509;BME280;67802;50.846;7.958;2023-07-16T03:28:27;97552.88;;;22.11;48.39
78509;BME280;67802;50.846;7.958;2023-07-16T03:30:53;97560.81;;;22.11;48.41
78509;BME280;67802;50.846;7.958;2023-07-16T03:33:19;97560.81;;;22.11;48.24
78509;BME280;67802;50.846;7.958;2023-07-16T03:35:45;97565.25;;;22.10;48.24
78509;BME280;67802;50.846;7.958;2023-07-16T03:38:12;97567.91;;;22.10;48.47
78509;BME280;67802;50.846;7.958;2023-07-16T03:40:38;97569.75;;;22.09;48.20
78509;BME280;67802;50.846;7.958;2023-07-16T03:43:03;97571.53;;;22.09;48.07
78509;BME280;67802;50.846;7.958;2023-07-16T03:45:29;97573.34;;;22.08;48.26
78509;BME280;67802;50.846;7.958;2023-07-16T03:47:54;97576.97;;;22.07;48.33
78509;BME280;67802;50.846;7.958;2023-07-16T03:50:19;97582.28;;;22.07;48.42
78509;BME280;67802;50.846;7.958;2023-07-16T03:52:45;97576.13;;;22.07;48.28
78509;BME280;67802;50.846;7.958;2023-07-16T03:55:10;97576.13;;;22.07;48.13
78509;BME280;67802;50.846;7.958;2023-07-16T03:57:36;97578.94;;;22.05;48.29
78509;BME280;67802;50.846;7.958;2023-07-16T04:00:05;97580.59;;;22.06;48.45
78509;BME280;67802;50.846;7.958;2023-07-16T04:02:36;97571.81;;;22.06;48.26
78509;BME280;67802;50.846;7.958;2023-07-16T04:05:02;97584.22;;;22.05;48.31
78509;BME280;67802;50.846;7.958;2023-07-16T04:07:28;97575.44;;;22.05;48.39
78509;BME280;67802;50.846;7.958;2023-07-16T04:09:53;97574.63;;;22.04;48.17
78509;BME280;67802;50.846;7.958;2023-07-16T04:12:18;97587.84;;;22.04;48.42
78509;BME280;67802;50.846;7.958;2023-07-16T04:14:44;97580.91;;;22.03;48.50
78509;BME280;67802;50.846;7.958;2023-07-16T04:17:09;97580.91;;;22.03;48.18
78509;BME280;67802;50.846;7.958;2023-07-16T04:19:34;97589.66;;;22.04;48.30
78509;BME280;67802;50.846;7.958;2023-07-16T04:22:00;97596.75;;;22.03;48.22
78509;BME280;67802;50.846;7.958;2023-07-16T04:24:25;97598.56;;;22.03;48.02
78509;BME280;67802;50.846;7.958;2023-07-16T04:26:52;97602.06;;;22.03;48.35
78509;BME280;67802;50.846;7.958;2023-07-16T04:29:18;97605.69;;;22.02;48.14
78509;BME280;67802;50.846;7.958;2023-07-16T04:31:43;97604.81;;;22.02;48.06
78509;BME280;67802;50.846;7.958;2023-07-16T04:34:08;97611.78;;;22.03;48.43
78509;BME280;67802;50.846;7.958;2023-07-16T04:36:34;97613.63;;;22.02;47.98
78509;BME280;67802;50.846;7.958;2023-07-16T04:38:59;97614.59;;;22.01;48.43
78509;BME280;67802;50.846;7.958;2023-07-16T04:41:24;97618.91;;;22.02;47.93
78509;BME280;67802;50.846;7.958;2023-07-16T04:43:49;97616.25;;;22.02;48.29
78509;BME280;67802;50.846;7.958;2023-07-16T04:46:15;97619.88;;;22.01;47.96
78509;BME280;67802;50.846;7.958;2023-07-16T04:48:41;97620.69;;;22.02;48.20
78509;BME280;67802;50.846;7.958;2023-07-16T04:51:07;97618.06;;;22.02;48.31
78509;BME280;67802;50.846;7.958;2023-07-16T04:53:32;97618.91;;;22.02;48.09
78509;BME280;67802;50.846;7.958;2023-07-16T04:55:57;97619.88;;;22.01;48.04
78509;BME280;67802;50.846;7.958;2023-07-16T04:58:23;97619.88;;;22.01;48.43
78509;BME280;67802;50.846;7.958;2023-07-16T05:00:48;97625.16;;;22.01;48.06
78509;BME280;67802;50.846;7.958;2023-07-16T05:03:14;97625.16;;;22.01;48.20
78509;BME280;67802;50.846;7.958;2023-07-16T05:05:39;97625.00;;;22.03;48.10
78509;BME280;67802;50.846;7.958;2023-07-16T05:08:05;97630.31;;;22.03;48.23
78509;BME280;67802;50.846;7.958;2023-07-16T05:10:30;97621.53;;;22.02;48.23
78509;BME280;67802;50.846;7.958;2023-07-16T05:12:56;97623.22;;;22.03;47.96
78509;BME280;67802;50.846;7.958;2023-07-16T05:15:21;97639.91;;;22.04;48.24
78509;BME280;67802;50.846;7.958;2023-07-16T05:17:47;97628.50;;;22.03;47.98
78509;BME280;67802;50.846;7.958;2023-07-16T05:20:12;97638.09;;;22.04;48.03
78509;BME280;67802;50.846;7.958;2023-07-16T05:22:37;97643.41;;;22.04;47.91
78509;BME280;67802;50.846;7.958;2023-07-16T05:25:03;97652.16;;;22.05;48.10
78509;BME280;67802;50.846;7.958;2023-07-16T05:27:28;97652.16;;;22.05;47.97
78509;BME280;67802;50.846;7.958;2023-07-16T05:29:54;97647.72;;;22.05;47.69
78509;BME280;67802;50.846;7.958;2023-07-16T05:32:19;97656.63;;;22.04;47.63
78509;BME280;67802;50.846;7.958;2023-07-16T05:34:45;97663.56;;;22.05;48.05
78509;BME280;67802;50.846;7.958;2023-07-16T05:37:10;97664.28;;;22.07;47.80
78509;BME280;67802;50.846;7.958;2023-07-16T05:39:37;97672.22;;;22.07;47.84
78509;BME280;67802;50.846;7.958;2023-07-16T05:42:02;97667.91;;;22.06;47.86
78509;BME280;67802;50.846;7.958;2023-07-16T05:44:28;97671.34;;;22.07;47.71
78509;BME280;67802;50.846;7.958;2023-07-16T05:46:54;97664.28;;;22.07;47.73
78509;BME280;67802;50.846;7.958;2023-07-16T05:49:19;97667.75;;;22.08;47.76
78509;BME280;67802;50.846;7.958;2023-07-16T05:51:44;97674.69;;;22.09;47.74
78509;BME280;67802;50.846;7.958;2023-07-16T05:54:10;97671.22;;;22.08;47.71
78509;BME280;67802;50.846;7.958;2023-07-16T05:56:35;97679.84;;;22.11;47.62
78509;BME280;67802;50.846;7.958;2023-07-16T05:59:00;97678.19;;;22.09;47.83
78509;BME280;67802;50.846;7.958;2023-07-16T06:01:26;97670.25;;;22.09;47.48
78509;BME280;67802;50.846;7.958;2023-07-16T06:03:51;97671.06;;;22.10;47.66
78509;BME280;67802;50.846;7.958;2023-07-16T06:06:16;97671.94;;;22.11;47.49
78509;BME280;67802;50.846;7.958;2023-07-16T06:08:41;97685.00;;;22.12;47.42
78509;BME280;67802;50.846;7.958;2023-07-16T06:11:07;97668.31;;;22.12;47.55
78509;BME280;67802;50.846;7.958;2023-07-16T06:13:32;97678.88;;;22.12;47.42
78509;BME280;67802;50.846;7.958;2023-07-16T06:15:58;97684.16;;;22.12;47.50
78509;BME280;67802;50.846;7.958;2023-07-16T06:18:23;97679.84;;;22.11;47.67
78509;BME280;67802;50.846;7.958;2023-07-16T06:20:48;97682.50;;;22.11;47.39
78509;BME280;67802;50.846;7.958;2023-07-16T06:23:15;97694.75;;;22.12;47.61
78509;BME280;67802;50.846;7.958;2023-07-16T06:25:42;97690.28;;;22.12;47.37
78509;BME280;67802;50.846;7.958;2023-07-16T06:28:11;97700.03;;;22.12;47.46
78509;BME280;67802;50.846;7.958;2023-07-16T06:30:37;97705.34;;;22.12;47.58
78509;BME280;67802;50.846;7.958;2023-07-16T06:33:02;97699.19;;;22.11;47.32
78509;BME280;67802;50.846;7.958;2023-07-16T06:35:28;97705.34;;;22.12;47.63
78509;BME280;67802;50.846;7.958;2023-07-16T06:37:53;97709.66;;;22.13;47.45
78509;BME280;67802;50.846;7.958;2023-07-16T06:40:18;97709.66;;;22.13;47.16
78509;BME280;67802;50.846;7.958;2023-07-16T06:42:44;97708.66;;;22.14;47.25
78509;BME280;67802;50.846;7.958;2023-07-16T06:45:10;97707.00;;;22.13;47.27
78509;BME280;67802;50.846;7.958;2023-07-16T06:47:35;97708.66;;;22.14;47.33
